createdAt,value
2022-11-06T00:02:24.923Z,32.45
2022-11-06T00:04:51.565Z,27.70
2022-11-06T00:07:18.186Z,38.10
2022-11-06T00:09:44.820Z,40.80
2022-11-06T00:12:11.502Z,46.45
2022-11-06T00:14:38.145Z,38.65
2022-11-06T00:17:04.805Z,36.22
2022-11-06T00:19:31.440Z,36.97
2022-11-06T00:21:58.063Z,46.05
2022-11-06T00:24:24.754Z,49.10
2022-11-06T00:26:54.367Z,42.95
2022-11-06T00:29:21.375Z,43.42
2022-11-06T00:31:50.060Z,45.30
2022-11-06T00:34:16.844Z,54.30
2022-11-06T00:36:43.502Z,63.00
2022-11-06T00:39:11.307Z,47.60
2022-11-06T00:41:37.926Z,46.90
2022-11-06T00:44:04.772Z,44.00
2022-11-06T00:46:32.086Z,50.70
2022-11-06T00:48:59.025Z,40.28
2022-11-06T00:51:31.711Z,38.05
2022-11-06T00:54:03.463Z,41.28
2022-11-06T00:56:31.461Z,36.72
2022-11-06T00:59:02.714Z,41.75
2022-11-06T01:01:32.120Z,42.35
2022-11-06T01:04:04.854Z,39.50
2022-11-06T01:06:34.616Z,37.22
2022-11-06T01:09:02.075Z,46.28
2022-11-06T01:11:52.632Z,47.15
2022-11-06T01:14:22.476Z,49.08
2022-11-06T01:16:49.515Z,41.20
2022-11-06T01:19:18.342Z,48.78
2022-11-06T01:21:48.206Z,49.80
2022-11-06T01:24:21.679Z,34.50
2022-11-06T01:27:05.270Z,39.05
2022-11-06T01:29:35.891Z,40.33
2022-11-06T01:32:02.549Z,41.20
2022-11-06T01:34:29.608Z,40.15
2022-11-06T01:36:56.235Z,49.42
2022-11-06T01:39:22.876Z,38.22
2022-11-06T01:41:51.598Z,39.30
2022-11-06T01:44:33.469Z,27.50
2022-11-06T01:47:02.069Z,35.33
2022-11-06T01:49:35.168Z,34.88
2022-11-06T01:52:07.813Z,31.98
2022-11-06T01:54:36.659Z,32.72
2022-11-06T01:57:04.716Z,29.30
2022-11-06T01:59:34.263Z,26.05
2022-11-06T02:02:01.111Z,33.20
2022-11-06T02:04:37.849Z,28.85
2022-11-06T02:07:05.696Z,28.73
2022-11-06T02:09:34.305Z,31.67
2022-11-06T02:12:24.169Z,24.85
2022-11-06T02:15:00.615Z,27.90
2022-11-06T02:17:52.115Z,28.45
2022-11-06T02:20:46.677Z,27.92
2022-11-06T02:23:38.522Z,25.45
2022-11-06T02:26:32.760Z,29.67
2022-11-06T02:29:15.227Z,29.40
2022-11-06T02:31:43.578Z,27.92
2022-11-06T02:34:14.452Z,25.38
2022-11-06T02:36:51.561Z,26.75
2022-11-06T02:39:20.758Z,29.33
2022-11-06T02:41:49.660Z,21.58
2022-11-06T02:44:22.076Z,22.48
2022-11-06T02:46:59.117Z,26.83
2022-11-06T02:49:41.400Z,21.55
2022-11-06T02:52:32.793Z,24.55
2022-11-06T02:55:08.344Z,23.23
2022-11-06T02:57:39.773Z,20.85
2022-11-06T03:00:12.394Z,27.23
2022-11-06T03:02:53.837Z,23.45
2022-11-06T03:05:27.821Z,21.25
2022-11-06T03:08:14.840Z,18.83
2022-11-06T03:13:19.656Z,25.05
2022-11-06T03:15:52.150Z,23.27
2022-11-06T03:18:43.167Z,19.95
2022-11-06T03:21:24.346Z,20.55
2022-11-06T03:23:58.284Z,22.55
2022-11-06T03:26:36.588Z,20.40
2022-11-06T03:29:17.898Z,21.05
2022-11-06T03:32:15.632Z,16.83
2022-11-06T03:34:50.818Z,17.45
2022-11-06T03:37:24.837Z,22.27
2022-11-06T03:39:55.520Z,19.52
2022-11-06T03:42:27.093Z,24.20
2022-11-06T03:45:00.344Z,31.27
2022-11-06T03:47:43.262Z,22.88
2022-11-06T03:50:25.982Z,28.25
2022-11-06T03:53:00.909Z,23.10
2022-11-06T03:55:36.475Z,16.27
2022-11-06T03:58:11.547Z,23.45
2022-11-06T04:00:42.037Z,23.85
2022-11-06T04:03:21.048Z,18.83
2022-11-06T04:05:53.938Z,18.65
2022-11-06T04:08:42.322Z,18.88
2022-11-06T04:11:31.326Z,20.63
2022-11-06T04:14:04.392Z,16.33
2022-11-06T04:16:45.351Z,26.73
2022-11-06T04:19:18.249Z,21.00
2022-11-06T04:22:01.200Z,28.33
2022-11-06T04:25:04.488Z,22.05
2022-11-06T04:27:56.814Z,26.23
2022-11-06T04:30:24.253Z,25.70
2022-11-06T04:33:07.513Z,27.85
2022-11-06T04:35:37.266Z,36.00
2022-11-06T04:38:12.929Z,25.95
2022-11-06T04:40:55.104Z,25.52
2022-11-06T04:43:44.141Z,28.13
2022-11-06T04:46:16.297Z,29.27
2022-11-06T04:48:44.683Z,26.25
2022-11-06T04:51:12.104Z,20.55
2022-11-06T04:53:40.729Z,32.08
2022-11-06T04:56:13.208Z,34.03
2022-11-06T04:58:43.895Z,24.92
2022-11-06T05:01:10.649Z,25.08
2022-11-06T05:03:37.822Z,26.13
2022-11-06T05:06:04.692Z,26.98
2022-11-06T05:08:31.336Z,30.55
2022-11-06T05:10:57.985Z,20.67
2022-11-06T05:13:24.599Z,26.90
2022-11-06T05:15:58.808Z,20.33
2022-11-06T05:18:26.857Z,19.65
2022-11-06T05:21:13.968Z,23.85
2022-11-06T05:23:41.257Z,16.77
2022-11-06T05:26:08.194Z,24.10
2022-11-06T05:28:34.929Z,27.63
2022-11-06T05:31:01.743Z,22.40
2022-11-06T05:33:28.373Z,20.08
2022-11-06T05:35:55.266Z,27.45
2022-11-06T05:38:21.925Z,22.20
2022-11-06T05:40:48.531Z,28.38
2022-11-06T05:43:15.197Z,16.40
2022-11-06T05:45:41.860Z,27.38
2022-11-06T05:48:08.524Z,19.10
2022-11-06T05:50:35.218Z,30.85
2022-11-06T05:53:01.818Z,22.25
2022-11-06T05:55:28.477Z,19.65
2022-11-06T05:57:55.080Z,21.58
2022-11-06T06:00:21.886Z,29.00
2022-11-06T06:02:48.553Z,26.73
2022-11-06T06:05:15.374Z,23.98
2022-11-06T06:07:42.033Z,27.33
2022-11-06T06:10:09.521Z,26.88
2022-11-06T06:12:36.144Z,23.92
2022-11-06T06:15:03.043Z,18.92
2022-11-06T06:17:29.691Z,29.88
2022-11-06T06:19:56.344Z,18.95
2022-11-06T06:22:22.981Z,14.65
2022-11-06T06:24:49.789Z,27.70
2022-11-06T06:27:17.289Z,19.30
2022-11-06T06:29:44.026Z,19.13
2022-11-06T06:32:10.759Z,22.95
2022-11-06T06:34:37.382Z,21.55
2022-11-06T06:37:03.969Z,17.80
2022-11-06T06:39:31.167Z,16.65
2022-11-06T06:41:58.835Z,15.82
2022-11-06T06:44:25.466Z,21.55
2022-11-06T06:46:52.133Z,20.95
2022-11-06T06:49:18.874Z,21.50
2022-11-06T06:51:48.456Z,14.68
2022-11-06T06:54:15.198Z,12.82
2022-11-06T06:56:48.732Z,20.45
2022-11-06T06:59:15.716Z,19.38
2022-11-06T07:01:42.892Z,16.50
2022-11-06T07:04:10.862Z,18.27
2022-11-06T07:06:37.490Z,14.82
2022-11-06T07:09:04.610Z,14.23
2022-11-06T07:11:31.272Z,23.48
2022-11-06T07:13:58.130Z,17.33
2022-11-06T07:16:25.444Z,31.00
2022-11-06T07:18:52.098Z,16.80
2022-11-06T07:21:19.060Z,14.40
2022-11-06T07:24:03.532Z,11.20
2022-11-06T07:26:30.393Z,13.80
2022-11-06T07:28:57.084Z,30.67
2022-11-06T07:31:23.879Z,15.52
2022-11-06T07:33:50.631Z,16.77
2022-11-06T07:36:17.400Z,10.98
2022-11-06T07:38:44.448Z,17.88
2022-11-06T07:41:13.664Z,14.82
2022-11-06T07:43:40.894Z,9.68
2022-11-06T07:46:09.622Z,25.95
2022-11-06T07:48:36.752Z,19.17
2022-11-06T07:51:06.228Z,12.15
2022-11-06T07:53:33.542Z,28.02
2022-11-06T07:56:00.884Z,18.08
2022-11-06T07:58:28.440Z,23.23
2022-11-06T08:00:57.484Z,20.35
2022-11-06T08:03:25.693Z,14.73
2022-11-06T08:05:52.346Z,13.70
2022-11-06T08:08:18.955Z,19.00
2022-11-06T08:10:47.664Z,21.77
2022-11-06T08:13:17.127Z,13.60
2022-11-06T08:15:44.200Z,20.65
2022-11-06T08:18:12.120Z,24.33
2022-11-06T08:20:39.648Z,21.95
2022-11-06T08:23:08.165Z,17.52
2022-11-06T08:25:35.172Z,21.48
2022-11-06T08:28:06.574Z,17.88
2022-11-06T08:30:33.444Z,14.00
2022-11-06T08:33:06.144Z,17.08
2022-11-06T08:35:34.795Z,17.00
2022-11-06T08:38:01.559Z,17.90
2022-11-06T08:40:31.236Z,17.00
2022-11-06T08:43:07.226Z,14.93
2022-11-06T08:45:40.997Z,15.15
2022-11-06T08:48:08.863Z,12.77
2022-11-06T08:50:41.438Z,13.93
2022-11-06T08:53:08.358Z,17.38
2022-11-06T08:55:37.663Z,12.32
2022-11-06T08:58:05.504Z,16.20
2022-11-06T09:00:33.011Z,17.88
2022-11-06T09:03:02.043Z,15.38
2022-11-06T09:05:29.746Z,13.88
2022-11-06T09:07:59.866Z,19.25
2022-11-06T09:10:28.026Z,11.68
2022-11-06T09:12:55.763Z,18.67
2022-11-06T09:15:22.813Z,13.68
2022-11-06T09:17:51.077Z,11.52
2022-11-06T09:20:20.354Z,14.90
2022-11-06T09:22:48.611Z,25.48
2022-11-06T09:25:16.154Z,16.65
2022-11-06T09:27:54.448Z,13.10
2022-11-06T09:30:27.940Z,8.93
2022-11-06T09:32:57.731Z,12.20
2022-11-06T09:35:26.624Z,14.75
2022-11-06T09:37:53.700Z,18.35
2022-11-06T09:40:46.495Z,14.98
2022-11-06T09:44:03.565Z,15.68
2022-11-06T09:46:28.271Z,13.70
2022-11-06T09:49:53.547Z,13.30
2022-11-06T09:52:57.495Z,12.45
2022-11-06T09:55:34.665Z,16.15
2022-11-06T09:58:09.935Z,16.27
2022-11-06T10:00:36.737Z,12.50
2022-11-06T10:03:18.794Z,19.50
2022-11-06T10:05:47.745Z,10.63
2022-11-06T10:08:15.043Z,8.98
2022-11-06T10:10:54.827Z,9.63
2022-11-06T10:13:39.906Z,17.02
2022-11-06T10:16:13.132Z,12.00
2022-11-06T10:19:07.665Z,9.05
2022-11-06T10:21:46.656Z,15.00
2022-11-06T10:24:21.830Z,11.13
2022-11-06T10:26:58.384Z,9.25
2022-11-06T10:29:37.803Z,9.98
2022-11-06T10:32:28.909Z,14.02
2022-11-06T10:35:37.263Z,9.60
2022-11-06T10:38:10.889Z,10.20
2022-11-06T10:40:39.372Z,10.45
2022-11-06T10:43:32.304Z,12.68
2022-11-06T10:46:39.810Z,14.50
2022-11-06T10:49:25.970Z,7.87
2022-11-06T10:52:32.278Z,11.30
2022-11-06T10:55:22.092Z,13.18
2022-11-06T10:57:56.016Z,25.23
2022-11-06T11:00:23.364Z,8.77
2022-11-06T11:03:06.576Z,13.90
2022-11-06T11:05:44.548Z,9.00
2022-11-06T11:08:34.276Z,7.82
2022-11-06T11:11:57.997Z,8.40
2022-11-06T11:14:32.098Z,12.73
2022-11-06T11:17:07.655Z,10.98
2022-11-06T11:19:41.713Z,8.65
2022-11-06T11:22:28.948Z,19.70
2022-11-06T11:25:04.838Z,12.60
2022-11-06T11:27:55.093Z,12.38
2022-11-06T11:30:26.444Z,11.20
2022-11-06T11:32:54.306Z,10.35
2022-11-06T11:35:27.282Z,7.70
2022-11-06T11:38:19.069Z,7.53
2022-11-06T11:40:52.315Z,12.40
2022-11-06T11:44:03.727Z,14.65
2022-11-06T11:46:36.027Z,8.43
2022-11-06T11:49:03.609Z,10.43
2022-11-06T11:51:59.669Z,12.48
2022-11-06T11:54:33.834Z,13.20
2022-11-06T11:57:06.681Z,9.25
2022-11-06T11:59:56.847Z,12.65
2022-11-06T12:02:46.035Z,7.90
2022-11-06T12:05:16.029Z,10.30
2022-11-06T12:08:03.694Z,7.68
2022-11-06T12:10:43.952Z,13.43
2022-11-06T12:13:13.378Z,10.15
2022-11-06T12:15:44.602Z,10.88
2022-11-06T12:18:19.810Z,8.52
2022-11-06T12:21:51.933Z,5.88
2022-11-06T12:24:23.908Z,9.70
2022-11-06T12:27:16.072Z,7.00
2022-11-06T12:30:05.871Z,6.40
2022-11-06T12:33:13.697Z,4.95
2022-11-06T12:36:02.174Z,13.40
2022-11-06T12:38:41.910Z,8.20
2022-11-06T12:41:26.037Z,12.02
2022-11-06T12:43:54.151Z,8.35
2022-11-06T12:46:39.843Z,10.13
2022-11-06T12:49:39.910Z,8.98
2022-11-06T12:52:39.618Z,6.05
2022-11-06T12:55:18.668Z,11.18
2022-11-06T12:58:14.622Z,12.77
2022-11-06T13:01:09.270Z,5.22
2022-11-06T13:04:26.463Z,8.02
2022-11-06T13:07:21.627Z,6.47
2022-11-06T13:10:50.113Z,10.23
2022-11-06T13:13:45.735Z,6.13
2022-11-06T13:16:20.737Z,5.72
2022-11-06T13:19:09.955Z,8.75
2022-11-06T13:21:59.442Z,7.45
2022-11-06T13:24:34.156Z,6.95
2022-11-06T13:27:27.977Z,5.43
2022-11-06T13:30:01.195Z,7.32
2022-11-06T13:32:32.850Z,4.88
2022-11-06T13:35:00.666Z,5.55
2022-11-06T13:37:41.742Z,6.65
2022-11-06T13:40:16.398Z,4.47
2022-11-06T13:42:50.849Z,5.45
2022-11-06T13:45:18.517Z,6.25
2022-11-06T13:48:03.047Z,3.15
2022-11-06T13:50:36.823Z,3.72
2022-11-06T13:53:33.634Z,4.45
2022-11-06T13:56:12.218Z,4.78
2022-11-06T13:58:57.906Z,4.15
2022-11-06T14:01:43.892Z,4.43
2022-11-06T14:04:32.149Z,3.47
2022-11-06T14:07:03.446Z,2.75
2022-11-06T14:09:35.101Z,3.97
2022-11-06T14:12:09.984Z,4.00
2022-11-06T14:14:39.267Z,1.95
2022-11-06T14:17:17.108Z,3.15
2022-11-06T14:19:49.079Z,2.05
2022-11-06T14:22:29.499Z,5.50
2022-11-06T14:25:01.500Z,3.63
2022-11-06T14:27:28.837Z,5.38
2022-11-06T14:30:02.944Z,2.65
2022-11-06T14:32:41.141Z,3.40
2022-11-06T14:35:29.772Z,2.80
2022-11-06T14:38:18.329Z,9.95
2022-11-06T14:40:45.731Z,2.70
2022-11-06T14:43:35.536Z,2.35
2022-11-06T14:46:19.605Z,3.17
2022-11-06T14:48:52.231Z,7.40
2022-11-06T14:51:26.849Z,7.25
2022-11-06T14:54:00.552Z,3.17
2022-11-06T14:56:30.782Z,4.10
2022-11-06T14:59:01.825Z,4.20
2022-11-06T15:01:30.884Z,5.47
2022-11-06T15:04:06.882Z,6.35
2022-11-06T15:06:35.579Z,5.03
2022-11-06T15:09:07.302Z,2.92
2022-11-06T15:11:34.932Z,5.70
2022-11-06T15:14:07.702Z,5.63
2022-11-06T15:16:51.361Z,6.50
2022-11-06T15:19:34.293Z,3.65
2022-11-06T15:22:15.434Z,3.92
2022-11-06T15:24:55.156Z,12.23
2022-11-06T15:27:26.017Z,5.50
2022-11-06T15:29:56.446Z,4.78
2022-11-06T15:32:26.303Z,4.20
2022-11-06T15:34:59.689Z,4.00
2022-11-06T15:38:07.274Z,6.97
2022-11-06T15:40:39.500Z,5.25
2022-11-06T15:43:28.338Z,4.80
2022-11-06T15:46:18.152Z,8.00
2022-11-06T15:48:46.258Z,3.45
2022-11-06T15:51:27.630Z,6.38
2022-11-06T15:53:54.693Z,3.40
2022-11-06T15:56:34.653Z,2.20
2022-11-06T15:59:08.162Z,6.13
2022-11-06T16:01:35.966Z,6.88
2022-11-06T16:04:09.410Z,3.97
2022-11-06T16:06:39.122Z,8.20
2022-11-06T16:09:15.462Z,3.90
2022-11-06T16:11:44.120Z,5.50
2022-11-06T16:14:14.195Z,8.73
2022-11-06T16:16:44.965Z,3.00
2022-11-06T16:19:18.409Z,5.47
2022-11-06T16:22:01.834Z,6.75
2022-11-06T16:24:33.350Z,4.60
2022-11-06T16:27:03.988Z,3.03
2022-11-06T16:29:31.301Z,3.30
2022-11-06T16:32:17.173Z,5.75
2022-11-06T16:34:46.861Z,2.38
2022-11-06T16:37:16.346Z,5.22
2022-11-06T16:39:53.132Z,5.38
2022-11-06T16:44:59.728Z,5.63
2022-11-06T16:47:26.747Z,6.22
2022-11-06T16:49:58.297Z,5.18
2022-11-06T16:52:30.999Z,5.25
2022-11-06T16:54:59.958Z,4.30
2022-11-06T16:57:43.480Z,7.25
2022-11-06T17:00:22.059Z,7.47
2022-11-06T17:03:03.371Z,10.23
2022-11-06T17:05:33.855Z,7.05
2022-11-06T17:08:19.006Z,5.05
2022-11-06T17:10:59.637Z,7.30
2022-11-06T17:13:32.470Z,8.63
2022-11-06T17:16:05.045Z,5.22
2022-11-06T17:18:34.563Z,4.55
2022-11-06T17:21:06.466Z,8.35
2022-11-06T17:23:34.427Z,9.50
2022-11-06T17:26:24.796Z,5.43
2022-11-06T17:28:52.611Z,6.80
2022-11-06T17:31:20.989Z,4.60
2022-11-06T17:33:48.418Z,3.67
2022-11-06T17:36:25.281Z,4.82
2022-11-06T17:41:32.522Z,5.88
2022-11-06T17:44:01.720Z,7.20
2022-11-06T17:46:30.889Z,2.75
2022-11-06T17:48:57.566Z,2.80
2022-11-06T17:51:43.636Z,4.07
2022-11-06T17:54:11.353Z,6.13
2022-11-06T17:56:38.509Z,5.22
2022-11-06T17:59:09.107Z,2.13
2022-11-06T18:01:36.871Z,4.10
2022-11-06T18:04:04.040Z,3.83
2022-11-06T18:06:31.043Z,4.70
2022-11-06T18:08:58.958Z,3.40
2022-11-06T18:11:26.587Z,4.15
2022-11-06T18:13:53.751Z,3.88
2022-11-06T18:16:24.566Z,3.35
2022-11-06T18:19:24.869Z,4.80
2022-11-06T18:21:51.779Z,2.45
2022-11-06T18:24:18.896Z,4.13
2022-11-06T18:26:45.927Z,4.22
2022-11-06T18:29:13.304Z,4.53
2022-11-06T18:31:40.738Z,4.00
2022-11-06T18:34:13.981Z,5.05
2022-11-06T18:36:43.771Z,4.55
2022-11-06T18:39:10.524Z,5.55
2022-11-06T18:41:37.238Z,8.63
2022-11-06T18:44:04.755Z,6.07
2022-11-06T18:46:38.196Z,3.17
2022-11-06T18:49:05.417Z,2.55
2022-11-06T18:51:35.586Z,4.43
2022-11-06T18:54:06.567Z,4.45
2022-11-06T18:56:36.543Z,4.28
2022-11-06T18:59:04.768Z,7.45
2022-11-06T19:01:31.685Z,5.43
2022-11-06T19:03:58.441Z,6.05
2022-11-06T19:06:25.772Z,4.60
2022-11-06T19:08:52.496Z,7.07
2022-11-06T19:11:19.454Z,6.63
2022-11-06T19:13:48.649Z,8.43
2022-11-06T19:16:19.644Z,6.22
2022-11-06T19:21:29.032Z,7.95
2022-11-06T19:24:03.402Z,6.75
2022-11-06T19:26:36.389Z,9.05
2022-11-06T19:29:08.358Z,10.98
2022-11-06T19:31:39.410Z,10.52
2022-11-06T19:34:07.340Z,6.10
2022-11-06T19:36:34.539Z,8.30
2022-11-06T19:39:08.864Z,5.63
2022-11-06T19:45:07.171Z,6.43
2022-11-06T19:47:37.611Z,8.93
2022-11-06T19:50:04.474Z,7.22
2022-11-06T19:52:41.791Z,7.68
2022-11-06T19:55:26.312Z,5.35
2022-11-06T19:57:57.733Z,3.55
2022-11-06T20:00:24.450Z,5.90
2022-11-06T20:02:51.524Z,6.97
2022-11-06T20:05:18.605Z,5.40
2022-11-06T20:07:49.183Z,4.65
2022-11-06T20:10:26.911Z,5.55
2022-11-06T20:13:23.322Z,7.25
2022-11-06T20:15:50.785Z,4.13
2022-11-06T20:18:29.745Z,5.30
2022-11-06T20:21:00.709Z,4.55
2022-11-06T20:23:29.303Z,5.05
2022-11-06T20:25:56.426Z,5.90
2022-11-06T20:28:39.539Z,8.13
2022-11-06T20:31:08.495Z,6.47
2022-11-06T20:33:36.326Z,5.40
2022-11-06T20:36:30.715Z,5.30
2022-11-06T20:39:04.121Z,6.43
2022-11-06T20:45:20.058Z,5.95
2022-11-06T20:51:48.310Z,11.80
2022-11-06T20:55:16.352Z,5.43
2022-11-06T20:57:57.690Z,4.53
2022-11-06T21:00:24.857Z,6.10
2022-11-06T21:03:05.094Z,8.60
2022-11-06T21:05:35.380Z,6.57
2022-11-06T21:14:57.674Z,7.03
2022-11-06T21:18:00.861Z,4.18
2022-11-06T21:20:30.972Z,8.75
2022-11-06T21:22:57.890Z,6.60
2022-11-06T21:25:56.513Z,8.45
2022-11-06T21:28:27.390Z,6.47
2022-11-06T21:31:00.059Z,9.65
2022-11-06T21:34:17.263Z,8.70
2022-11-06T21:50:29.835Z,3.05
2022-11-06T21:53:19.925Z,3.05
2022-11-06T21:56:02.779Z,5.15
2022-11-06T21:58:29.604Z,12.68
2022-11-06T22:00:56.464Z,7.40
2022-11-06T22:03:23.642Z,7.00
2022-11-06T22:05:50.363Z,10.75
2022-11-06T22:08:17.325Z,12.90
2022-11-06T22:10:44.293Z,8.48
2022-11-06T22:13:14.349Z,6.55
2022-11-06T22:15:45.181Z,3.75
2022-11-06T22:18:12.129Z,8.00
2022-11-06T22:20:41.882Z,6.60
2022-11-06T22:23:14.411Z,4.05
2022-11-06T22:25:41.512Z,9.30
2022-11-06T22:31:52.989Z,7.57
2022-11-06T22:31:53.105Z,4.00
2022-11-06T22:34:19.825Z,6.05
2022-11-06T22:36:46.546Z,2.83
2022-11-06T22:39:15.363Z,5.95
2022-11-06T22:41:42.097Z,7.15
2022-11-06T22:44:09.586Z,9.32
2022-11-06T22:46:39.459Z,7.03
2022-11-06T22:49:06.176Z,11.68
2022-11-06T22:51:34.113Z,8.27
2022-11-06T22:54:01.779Z,3.90
2022-11-06T22:56:30.453Z,8.98
2022-11-06T23:02:38.202Z,7.50
2022-11-06T23:05:05.320Z,9.15
2022-11-06T23:07:32.009Z,10.95
2022-11-06T23:09:58.647Z,9.77
2022-11-06T23:12:25.326Z,10.35
2022-11-06T23:14:52.282Z,10.00
2022-11-06T23:17:18.976Z,11.95
2022-11-06T23:19:45.642Z,6.95
2022-11-06T23:22:30.696Z,6.32
2022-11-06T23:24:57.309Z,8.27
2022-11-06T23:27:24.637Z,10.73
2022-11-06T23:29:51.885Z,11.18
2022-11-06T23:32:20.673Z,10.70
2022-11-06T23:34:51.399Z,13.57
2022-11-06T23:37:18.082Z,13.70
2022-11-06T23:39:44.754Z,9.50
2022-11-06T23:42:18.366Z,10.75
2022-11-06T23:45:03.975Z,10.18
2022-11-06T23:47:30.723Z,12.13
2022-11-06T23:49:57.729Z,12.75
2022-11-06T23:52:24.671Z,14.60
2022-11-06T23:54:51.618Z,12.73
2022-11-06T23:57:18.407Z,18.02
2022-11-06T23:59:46.606Z,8.80
